sensor_id;sensor_type;location;lat;lon;timestamp;pressure;altitude;pressure_sealevel;temperature;humidity
60433;BME280;46286;48.098;11.590;2023-03-01T00:00:37;96016.59;;;-0.62;100.00
60433;BME280;46286;48.098;11.590;2023-03-01T00:03:20;96008.22;;;-0.64;100.00
60433;BME280;46286;48.098;11.590;2023-03-01T00:05:46;96006.44;;;-0.63;100.00
60433;BME280;46286;48.098;11.590;2023-03-01T00:08:12;96001.06;;;-0.62;100.00
60433;BME280;46286;48.098;11.590;2023-03-01T00:10:37;96006.63;;;-0.65;100.00
60433;BME280;46286;48.098;11.590;2023-03-01T00:13:03;95994.69;;;-0.66;100.00
60433;BME280;46286;48.098;11.590;2023-03-01T00:15:31;95999.50;;;-0.63;100.00
60433;BME280;46286;48.098;11.590;2023-03-01T00:17:57;96005.38;;;-0.69;100.00
60433;BME280;46286;48.098;11.590;2023-03-01T00:20:23;95998.66;;;-0.63;100.00
60433;BME280;46286;48.098;11.590;2023-03-01T00:22:48;96004.84;;;-0.64;100.00
60433;BME280;46286;48.098;11.590;2023-03-01T00:25:14;96001.41;;;-0.72;100.00
60433;BME280;46286;48.098;11.590;2023-03-01T00:27:39;96001.22;;;-0.70;100.00
60433;BME280;46286;48.098;11.590;2023-03-01T00:30:06;96001.88;;;-0.61;100.00
60433;BME280;46286;48.098;11.590;2023-03-01T00:32:31;96001.06;;;-0.62;100.00
60433;BME280;46286;48.098;11.590;2023-03-01T00:34:57;95999.06;;;-0.66;100.00
60433;BME280;46286;48.098;11.590;2023-03-01T00:37:23;95986.31;;;-0.68;100.00
60433;BME280;46286;48.098;11.590;2023-03-01T00:39:49;95996.72;;;-0.61;100.00
60433;BME280;46286;48.098;11.590;2023-03-01T00:42:15;95998.25;;;-0.67;100.00
60433;BME280;46286;48.098;11.590;2023-03-01T00:44:42;95989.03;;;-0.76;100.00
60433;BME280;46286;48.098;11.590;2023-03-01T00:47:07;95991.09;;;-0.65;100.00
60433;BME280;46286;48.098;11.590;2023-03-01T00:49:34;95984.91;;;-0.71;100.00
60433;BME280;46286;48.098;11.590;2023-03-01T00:51:59;95980.28;;;-0.75;100.00
60433;BME280;46286;48.098;11.590;2023-03-01T00:54:25;95982.38;;;-0.64;100.00
60433;BME280;46286;48.098;11.590;2023-03-01T00:56:50;95979.53;;;-0.69;100.00
60433;BME280;46286;48.098;11.590;2023-03-01T00:59:16;95980.97;;;-0.66;100.00
60433;BME280;46286;48.098;11.590;2023-03-01T01:01:41;95977.13;;;-0.71;100.00
60433;BME280;46286;48.098;11.590;2023-03-01T01:04:10;95975.97;;;-0.68;100.00
60433;BME280;46286;48.098;11.590;2023-03-01T01:06:42;95968.84;;;-0.66;100.00
60433;BME280;46286;48.098;11.590;2023-03-01T01:09:11;95970.03;;;-0.68;100.00
60433;BME280;46286;48.098;11.590;2023-03-01T01:11:46;95969.03;;;-0.67;100.00
60433;BME280;46286;48.098;11.590;2023-03-01T01:14:13;95966.38;;;-0.74;100.00
60433;BME280;46286;48.098;11.590;2023-03-01T01:16:39;95961.59;;;-0.77;100.00
60433;BME280;46286;48.098;11.590;2023-03-01T01:19:04;95943.50;;;-0.77;100.00
60433;BME280;46286;48.098;11.590;2023-03-01T01:21:30;95953.09;;;-0.71;100.00
60433;BME280;46286;48.098;11.590;2023-03-01T01:23:57;95940.09;;;-0.78;100.00
60433;BME280;46286;48.098;11.590;2023-03-01T01:26:25;95951.63;;;-0.80;100.00
60433;BME280;46286;48.098;11.590;2023-03-01T01:28:52;95952.50;;;-0.73;100.00
60433;BME280;46286;48.098;11.590;2023-03-01T01:31:18;95944.47;;;-0.78;100.00
60433;BME280;46286;48.098;11.590;2023-03-01T01:33:44;95948.44;;;-0.82;100.00
60433;BME280;46286;48.098;11.590;2023-03-01T01:36:10;95939.44;;;-0.87;100.00
60433;BME280;46286;48.098;11.590;2023-03-01T01:38:37;95940.94;;;-0.77;100.00
60433;BME280;46286;48.098;11.590;2023-03-01T01:41:04;95937.13;;;-0.81;100.00
60433;BME280;46286;48.098;11.590;2023-03-01T01:43:34;95930.59;;;-0.77;100.00
60433;BME280;46286;48.098;11.590;2023-03-01T01:46:43;95926.97;;;-0.83;100.00
60433;BME280;46286;48.098;11.590;2023-03-01T01:48:54;95923.56;;;-0.83;100.00
60433;BME280;46286;48.098;11.590;2023-03-01T01:51:25;95920.97;;;-0.83;100.00
60433;BME280;46286;48.098;11.590;2023-03-01T01:53:59;95919.41;;;-0.84;100.00
60433;BME280;46286;48.098;11.590;2023-03-01T01:56:26;95920.38;;;-0.85;100.00
60433;BME280;46286;48.098;11.590;2023-03-01T01:58:54;95916.63;;;-0.83;100.00
60433;BME280;46286;48.098;11.590;2023-03-01T02:01:20;95913.84;;;-0.81;100.00
60433;BME280;46286;48.098;11.590;2023-03-01T02:03:46;95911.41;;;-0.90;100.00
60433;BME280;46286;48.098;11.590;2023-03-01T02:06:28;95909.91;;;-0.77;100.00
60433;BME280;46286;48.098;11.590;2023-03-01T02:09:02;95910.28;;;-0.80;100.00
60433;BME280;46286;48.098;11.590;2023-03-01T02:11:31;95910.63;;;-0.83;100.00
60433;BME280;46286;48.098;11.590;2023-03-01T02:13:57;95914.63;;;-0.88;100.00
60433;BME280;46286;48.098;11.590;2023-03-01T02:16:23;95914.22;;;-0.84;100.00
60433;BME280;46286;48.098;11.590;2023-03-01T02:18:49;95905.13;;;-0.80;100.00
60433;BME280;46286;48.098;11.590;2023-03-01T02:21:30;95906.47;;;-0.84;100.00
60433;BME280;46286;48.098;11.590;2023-03-01T02:24:06;95906.59;;;-0.93;100.00
60433;BME280;46286;48.098;11.590;2023-03-01T02:26:42;95903.47;;;-0.88;100.00
60433;BME280;46286;48.098;11.590;2023-03-01T02:29:11;95901.81;;;-0.96;100.00
60433;BME280;46286;48.098;11.590;2023-03-01T02:31:36;95898.72;;;-0.84;100.00
60433;BME280;46286;48.098;11.590;2023-03-01T02:34:11;95909.66;;;-0.82;100.00
60433;BME280;46286;48.098;11.590;2023-03-01T02:36:56;95899.47;;;-0.91;100.00
60433;BME280;46286;48.098;11.590;2023-03-01T02:39:28;95894.66;;;-0.94;100.00
60433;BME280;46286;48.098;11.590;2023-03-01T02:41:56;95900.69;;;-0.87;100.00
60433;BME280;46286;48.098;11.590;2023-03-01T02:44:23;95896.53;;;-0.88;100.00
60433;BME280;46286;48.098;11.590;2023-03-01T02:46:51;95896.66;;;-0.96;100.00
60433;BME280;46286;48.098;11.590;2023-03-01T02:49:29;95895.91;;;-0.90;100.00
60433;BME280;46286;48.098;11.590;2023-03-01T02:52:22;95901.06;;;-0.90;100.00
60433;BME280;46286;48.098;11.590;2023-03-01T02:54:59;95890.25;;;-1.00;100.00
60433;BME280;46286;48.098;11.590;2023-03-01T02:57:27;95896.66;;;-0.96;100.00
60433;BME280;46286;48.098;11.590;2023-03-01T02:59:55;95891.47;;;-0.96;100.00
60433;BME280;46286;48.098;11.590;2023-03-01T03:02:24;95891.47;;;-0.96;100.00
60433;BME280;46286;48.098;11.590;2023-03-01T03:05:26;95890.25;;;-1.00;100.00
60433;BME280;46286;48.098;11.590;2023-03-01T03:07:52;95891.88;;;-0.99;100.00
60433;BME280;46286;48.098;11.590;2023-03-01T03:10:27;95887.78;;;-1.08;100.00
60433;BME280;46286;48.098;11.590;2023-03-01T03:13:05;95894.56;;;-1.07;100.00
60433;BME280;46286;48.098;11.590;2023-03-01T03:15:32;95894.19;;;-1.04;100.00
60433;BME280;46286;48.098;11.590;2023-03-01T03:18:02;95892.25;;;-1.02;100.00
60433;BME280;46286;48.098;11.590;2023-03-01T03:20:28;95894.19;;;-1.04;100.00
60433;BME280;46286;48.098;11.590;2023-03-01T03:22:57;95890.16;;;-1.13;100.00
60433;BME280;46286;48.098;11.590;2023-03-01T03:25:24;95885.03;;;-1.07;100.00
60433;BME280;46286;48.098;11.590;2023-03-01T03:27:51;95882.25;;;-1.05;100.00
60433;BME280;46286;48.098;11.590;2023-03-01T03:30:29;95881.28;;;-1.04;100.00
60433;BME280;46286;48.098;11.590;2023-03-01T03:32:55;95888.63;;;-1.08;100.00
60433;BME280;46286;48.098;11.590;2023-03-01T03:35:33;95892.09;;;-1.15;100.00
60433;BME280;46286;48.098;11.590;2023-03-01T03:38:00;95885.00;;;-1.13;100.00
60433;BME280;46286;48.098;11.590;2023-03-01T03:42:56;95881.00;;;-1.16;100.00
60433;BME280;46286;48.098;11.590;2023-03-01T03:45:22;95873.44;;;-1.17;100.00
60433;BME280;46286;48.098;11.590;2023-03-01T03:47:47;95877.44;;;-1.15;100.00
60433;BME280;46286;48.098;11.590;2023-03-01T03:50:15;95875.88;;;-1.09;100.00
60433;BME280;46286;48.098;11.590;2023-03-01T03:52:41;95877.44;;;-1.15;100.00
60433;BME280;46286;48.098;11.590;2023-03-01T03:55:08;95867.03;;;-1.22;100.00
60433;BME280;46286;48.098;11.590;2023-03-01T03:57:35;95870.22;;;-1.19;100.00
60433;BME280;46286;48.098;11.590;2023-03-01T04:00:01;95862.84;;;-1.23;100.00
60433;BME280;46286;48.098;11.590;2023-03-01T04:02:29;95859.88;;;-1.19;100.00
60433;BME280;46286;48.098;11.590;2023-03-01T04:04:55;95863.09;;;-1.17;100.00
60433;BME280;46286;48.098;11.590;2023-03-01T04:07:20;95850.69;;;-1.29;100.00
60433;BME280;46286;48.098;11.590;2023-03-01T04:09:46;95853.16;;;-1.20;100.00
60433;BME280;46286;48.098;11.590;2023-03-01T04:12:11;95852.28;;;-1.28;100.00
60433;BME280;46286;48.098;11.590;2023-03-01T04:14:37;95856.72;;;-1.22;100.00
60433;BME280;46286;48.098;11.590;2023-03-01T04:17:02;95850.69;;;-1.29;100.00
60433;BME280;46286;48.098;11.590;2023-03-01T04:19:31;95854.50;;;-1.25;100.00
60433;BME280;46286;48.098;11.590;2023-03-01T04:22:04;95856.59;;;-1.35;100.00
60433;BME280;46286;48.098;11.590;2023-03-01T04:24:35;95853.16;;;-1.20;100.00
60433;BME280;46286;48.098;11.590;2023-03-01T04:27:01;95857.19;;;-1.33;100.00
60433;BME280;46286;48.098;11.590;2023-03-01T04:29:26;95849.47;;;-1.33;100.00
60433;BME280;46286;48.098;11.590;2023-03-01T04:31:52;95853.28;;;-1.29;100.00
60433;BME280;46286;48.098;11.590;2023-03-01T04:34:18;95855.84;;;-1.29;100.00
60433;BME280;46286;48.098;11.590;2023-03-01T04:36:44;95848.22;;;-1.37;100.00
60433;BME280;46286;48.098;11.590;2023-03-01T04:39:09;95843.38;;;-1.47;100.00
60433;BME280;46286;48.098;11.590;2023-03-01T04:41:38;95843.44;;;-1.40;100.00
60433;BME280;46286;48.098;11.590;2023-03-01T04:44:05;95841.84;;;-1.41;100.00
60433;BME280;46286;48.098;11.590;2023-03-01T04:46:30;95850.78;;;-1.44;100.00
60433;BME280;46286;48.098;11.590;2023-03-01T04:48:56;95848.22;;;-1.37;100.00
60433;BME280;46286;48.098;11.590;2023-03-01T04:51:22;95844.66;;;-1.36;100.00
60433;BME280;46286;48.098;11.590;2023-03-01T04:53:47;95844.19;;;-1.46;100.00
60433;BME280;46286;48.098;11.590;2023-03-01T04:56:13;95846.13;;;-1.48;100.00
60433;BME280;46286;48.098;11.590;2023-03-01T04:58:39;95843.81;;;-1.43;100.00
60433;BME280;46286;48.098;11.590;2023-03-01T05:01:16;95835.81;;;-1.48;100.00
60433;BME280;46286;48.098;11.590;2023-03-01T05:03:48;95837.41;;;-1.47;100.00
60433;BME280;46286;48.098;11.590;2023-03-01T05:06:15;95842.69;;;-1.55;100.00
60433;BME280;46286;48.098;11.590;2023-03-01T05:08:42;95842.97;;;-1.50;100.00
60433;BME280;46286;48.098;11.590;2023-03-01T05:11:08;95835.78;;;-1.55;100.00
60433;BME280;46286;48.098;11.590;2023-03-01T05:13:38;95839.41;;;-1.49;100.00
60433;BME280;46286;48.098;11.590;2023-03-01T05:16:05;95836.13;;;-1.58;100.00
60433;BME280;46286;48.098;11.590;2023-03-01T05:18:32;95835.59;;;-1.53;100.00
60433;BME280;46286;48.098;11.590;2023-03-01T05:21:10;95827.88;;;-1.68;100.00
60433;BME280;46286;48.098;11.590;2023-03-01T05:23:36;95834.47;;;-1.66;100.00
60433;BME280;46286;48.098;11.590;2023-03-01T05:26:04;95828.81;;;-1.76;100.00
60433;BME280;46286;48.098;11.590;2023-03-01T05:28:31;95833.59;;;-1.73;100.00
60433;BME280;46286;48.098;11.590;2023-03-01T05:30:57;95831.28;;;-1.68;100.00
60433;BME280;46286;48.098;11.590;2023-03-01T05:33:24;95829.25;;;-1.72;100.00
60433;BME280;46286;48.098;11.590;2023-03-01T05:35:50;95826.13;;;-1.68;100.00
60433;BME280;46286;48.098;11.590;2023-03-01T05:38:17;95821.34;;;-1.71;100.00
60433;BME280;46286;48.098;11.590;2023-03-01T05:40:45;95820.22;;;-1.62;100.00
60433;BME280;46286;48.098;11.590;2023-03-01T05:43:12;95824.78;;;-1.64;100.00
60433;BME280;46286;48.098;11.590;2023-03-01T05:45:38;95819.34;;;-1.69;100.00
60433;BME280;46286;48.098;11.590;2023-03-01T05:48:05;95823.66;;;-1.76;100.00
60433;BME280;46286;48.098;11.590;2023-03-01T05:50:38;95819.72;;;-1.72;100.00
60433;BME280;46286;48.098;11.590;2023-03-01T05:53:06;95810.13;;;-1.78;100.00
60433;BME280;46286;48.098;11.590;2023-03-01T05:55:34;95810.00;;;-1.70;100.00
60433;BME280;46286;48.098;11.590;2023-03-01T05:58:01;95821.56;;;-1.66;100.00
60433;BME280;46286;48.098;11.590;2023-03-01T06:00:29;95822.06;;;-1.77;100.00
60433;BME280;46286;48.098;11.590;2023-03-01T06:02:56;95824.25;;;-1.74;100.00
60433;BME280;46286;48.098;11.590;2023-03-01T06:05:22;95823.53;;;-1.68;100.00
60433;BME280;46286;48.098;11.590;2023-03-01T06:07:48;95823.66;;;-1.76;100.00
60433;BME280;46286;48.098;11.590;2023-03-01T06:10:16;95840.38;;;-1.72;100.00
60433;BME280;46286;48.098;11.590;2023-03-01T06:12:42;95839.13;;;-1.76;100.00
60433;BME280;46286;48.098;11.590;2023-03-01T06:15:10;95831.88;;;-1.66;100.00
60433;BME280;46286;48.098;11.590;2023-03-01T06:17:38;95849.47;;;-1.76;100.00
60433;BME280;46286;48.098;11.590;2023-03-01T06:20:10;95839.50;;;-1.79;100.00
60433;BME280;46286;48.098;11.590;2023-03-01T06:22:37;95836.25;;;-1.88;100.00
60433;BME280;46286;48.098;11.590;2023-03-01T06:25:04;95840.75;;;-1.75;100.00
60433;BME280;46286;48.098;11.590;2023-03-01T06:27:29;95843.66;;;-1.78;100.00
60433;BME280;46286;48.098;11.590;2023-03-01T06:29:55;95836.31;;;-1.60;100.00
60433;BME280;46286;48.098;11.590;2023-03-01T06:32:20;95836.00;;;-1.71;100.00
60433;BME280;46286;48.098;11.590;2023-03-01T06:34:46;95839.50;;;-1.79;100.00
60433;BME280;46286;48.098;11.590;2023-03-01T06:37:11;95841.59;;;-1.89;100.00
60433;BME280;46286;48.098;11.590;2023-03-01T06:39:37;95838.66;;;-1.86;100.00
60433;BME280;46286;48.098;11.590;2023-03-01T06:42:03;95840.75;;;-1.75;100.00
60433;BME280;46286;48.098;11.590;2023-03-01T06:44:28;95841.47;;;-1.81;100.00
60433;BME280;46286;48.098;11.590;2023-03-01T06:46:54;95837.16;;;-1.74;100.00
60433;BME280;46286;48.098;11.590;2023-03-01T06:49:19;95837.16;;;-1.74;100.00
60433;BME280;46286;48.098;11.590;2023-03-01T06:51:46;95840.75;;;-1.75;100.00
60433;BME280;46286;48.098;11.590;2023-03-01T06:54:12;95834.59;;;-1.74;100.00
60433;BME280;46286;48.098;11.590;2023-03-01T06:56:38;95834.34;;;-1.79;100.00
60433;BME280;46286;48.098;11.590;2023-03-01T06:59:04;95832.88;;;-1.67;100.00
60433;BME280;46286;48.098;11.590;2023-03-01T07:01:30;95838.66;;;-1.86;100.00
60433;BME280;46286;48.098;11.590;2023-03-01T07:03:55;95845.28;;;-1.77;100.00
60433;BME280;46286;48.098;11.590;2023-03-01T07:06:22;95834.72;;;-1.82;100.00
60433;BME280;46286;48.098;11.590;2023-03-01T07:08:47;95841.53;;;-1.75;100.00
60433;BME280;46286;48.098;11.590;2023-03-01T07:11:13;95844.31;;;-1.76;100.00
60433;BME280;46286;48.098;11.590;2023-03-01T07:13:39;95831.88;;;-1.66;100.00
60433;BME280;46286;48.098;11.590;2023-03-01T07:16:05;95838.41;;;-1.70;100.00
60433;BME280;46286;48.098;11.590;2023-03-01T07:18:31;95839.50;;;-1.79;100.00
60433;BME280;46286;48.098;11.590;2023-03-01T07:20:56;95827.69;;;-1.67;100.00
60433;BME280;46286;48.098;11.590;2023-03-01T07:23:22;95827.78;;;-1.60;100.00
60433;BME280;46286;48.098;11.590;2023-03-01T07:25:52;95830.16;;;-1.59;100.00
60433;BME280;46286;48.098;11.590;2023-03-01T07:28:18;95834.09;;;-1.63;100.00
60433;BME280;46286;48.098;11.590;2023-03-01T07:30:44;95825.75;;;-1.65;100.00
60433;BME280;46286;48.098;11.590;2023-03-01T07:33:09;95825.00;;;-1.59;100.00
60433;BME280;46286;48.098;11.590;2023-03-01T07:35:35;95828.56;;;-1.60;100.00
60433;BME280;46286;48.098;11.590;2023-03-01T07:38:00;95818.75;;;-1.49;100.00
60433;BME280;46286;48.098;11.590;2023-03-01T07:40:26;95822.91;;;-1.48;100.00
60433;BME280;46286;48.098;11.590;2023-03-01T07:42:58;95818.84;;;-1.36;100.00
60433;BME280;46286;48.098;11.590;2023-03-01T07:45:24;95821.94;;;-1.47;100.00
60433;BME280;46286;48.098;11.590;2023-03-01T07:47:51;95820.22;;;-1.40;100.00
60433;BME280;46286;48.098;11.590;2023-03-01T07:50:18;95817.25;;;-1.37;100.00
60433;BME280;46286;48.098;11.590;2023-03-01T07:52:47;95833.97;;;-1.33;100.00
60433;BME280;46286;48.098;11.590;2023-03-01T07:55:13;95812.72;;;-1.35;100.00
60433;BME280;46286;48.098;11.590;2023-03-01T07:57:39;95808.53;;;-1.36;100.00
60433;BME280;46286;48.098;11.590;2023-03-01T08:00:05;95815.63;;;-1.38;100.00
60433;BME280;46286;48.098;11.590;2023-03-01T08:02:31;95812.94;;;-1.30;100.00
60433;BME280;46286;48.098;11.590;2023-03-01T08:04:57;95808.63;;;-1.23;100.00
60433;BME280;46286;48.098;11.590;2023-03-01T08:07:22;95811.97;;;-1.29;100.00
60433;BME280;46286;48.098;11.590;2023-03-01T08:09:48;95810.13;;;-1.35;100.00
60433;BME280;46286;48.098;11.590;2023-03-01T08:12:13;95809.00;;;-1.26;100.00
60433;BME280;46286;48.098;11.590;2023-03-01T08:14:41;95810.97;;;-1.28;100.00
60433;BME280;46286;48.098;11.590;2023-03-01T08:17:07;95816.63;;;-1.17;100.00
60433;BME280;46286;48.098;11.590;2023-03-01T08:19:32;95808.34;;;-1.06;100.00
60433;BME280;46286;48.098;11.590;2023-03-01T08:22:01;95805.06;;;-1.22;100.00
60433;BME280;46286;48.098;11.590;2023-03-01T08:24:27;95806.50;;;-1.12;100.00
60433;BME280;46286;48.098;11.590;2023-03-01T08:26:53;95801.13;;;-1.17;100.00
60433;BME280;46286;48.098;11.590;2023-03-01T08:29:19;95802.03;;;-0.97;100.00
60433;BME280;46286;48.098;11.590;2023-03-01T08:31:45;95808.72;;;-1.09;100.00
60433;BME280;46286;48.098;11.590;2023-03-01T08:34:13;95807.53;;;-1.07;100.00
60433;BME280;46286;48.098;11.590;2023-03-01T08:36:41;95814.34;;;-0.99;100.00
60433;BME280;46286;48.098;11.590;2023-03-01T08:39:08;95804.81;;;-0.98;100.00
60433;BME280;46286;48.098;11.590;2023-03-01T08:41:34;95797.72;;;-0.90;100.00
60433;BME280;46286;48.098;11.590;2023-03-01T08:44:00;95793.69;;;-0.99;100.00
60433;BME280;46286;48.098;11.590;2023-03-01T08:48:52;95789.81;;;-0.81;100.00
60433;BME280;46286;48.098;11.590;2023-03-01T08:51:19;95773.47;;;-0.89;100.00
60433;BME280;46286;48.098;11.590;2023-03-01T08:53:45;95788.97;;;-0.89;100.00
60433;BME280;46286;48.098;11.590;2023-03-01T08:56:11;95792.41;;;-0.81;100.00
60433;BME280;46286;48.098;11.590;2023-03-01T08:58:37;95792.59;;;-0.76;100.00
60433;BME280;46286;48.098;11.590;2023-03-01T09:01:10;95790.50;;;-0.66;100.00
60433;BME280;46286;48.098;11.590;2023-03-01T09:03:36;95779.56;;;-0.61;100.00
60433;BME280;46286;48.098;11.590;2023-03-01T09:06:03;95785.13;;;-0.64;100.00
60433;BME280;46286;48.098;11.590;2023-03-01T09:08:30;95786.44;;;-0.40;100.00
60433;BME280;46286;48.098;11.590;2023-03-01T09:10:56;95783.25;;;-0.29;100.00
60433;BME280;46286;48.098;11.590;2023-03-01T09:13:22;95776.84;;;-0.46;100.00
60433;BME280;46286;48.098;11.590;2023-03-01T09:15:52;95777.28;;;-0.36;100.00
60433;BME280;46286;48.098;11.590;2023-03-01T09:18:18;95776.09;;;-0.40;100.00
60433;BME280;46286;48.098;11.590;2023-03-01T09:20:43;95772.69;;;-0.41;100.00
60433;BME280;46286;48.098;11.590;2023-03-01T09:23:09;95769.53;;;-0.36;100.00
60433;BME280;46286;48.098;11.590;2023-03-01T09:25:34;95773.00;;;-0.02;100.00
60433;BME280;46286;48.098;11.590;2023-03-01T09:28:00;95763.44;;;-0.08;100.00
60433;BME280;46286;48.098;11.590;2023-03-01T09:30:26;95762.66;;;0.11;100.00
60433;BME280;46286;48.098;11.590;2023-03-01T09:32:51;95768.44;;;0.00;100.00
60433;BME280;46286;48.098;11.590;2023-03-01T09:35:17;95767.59;;;-0.07;100.00
60433;BME280;46286;48.098;11.590;2023-03-01T09:37:45;95761.88;;;0.04;100.00
60433;BME280;46286;48.098;11.590;2023-03-01T09:40:16;95761.91;;;0.17;100.00
60433;BME280;46286;48.098;11.590;2023-03-01T09:42:51;95768.28;;;0.22;100.00
60433;BME280;46286;48.098;11.590;2023-03-01T09:45:27;95763.47;;;0.19;100.00
60433;BME280;46286;48.098;11.590;2023-03-01T09:47:55;95761.50;;;0.47;100.00
60433;BME280;46286;48.098;11.590;2023-03-01T09:50:21;95764.09;;;0.21;100.00
60433;BME280;46286;48.098;11.590;2023-03-01T09:53:04;95765.50;;;0.50;100.00
60433;BME280;46286;48.098;11.590;2023-03-01T09:55:42;95764.28;;;0.26;100.00
60433;BME280;46286;48.098;11.590;2023-03-01T09:58:54;95763.50;;;0.32;100.00
60433;BME280;46286;48.098;11.590;2023-03-01T10:04:44;95761.69;;;0.12;100.00
60433;BME280;46286;48.098;11.590;2023-03-01T10:07:21;95757.72;;;0.16;100.00
60433;BME280;46286;48.098;11.590;2023-03-01T10:09:49;95755.94;;;0.37;100.00
60433;BME280;46286;48.098;11.590;2023-03-01T10:12:18;95758.50;;;0.37;100.00
60433;BME280;46286;48.098;11.590;2023-03-01T10:17:39;95755.94;;;0.44;100.00
60433;BME280;46286;48.098;11.590;2023-03-01T10:20:24;95744.38;;;0.40;100.00
60433;BME280;46286;48.098;11.590;2023-03-01T10:22:50;95743.56;;;0.66;100.00
60433;BME280;46286;48.098;11.590;2023-03-01T10:31:12;95741.56;;;0.81;100.00
60433;BME280;46286;48.098;11.590;2023-03-01T10:33:38;95745.94;;;0.88;100.00
60433;BME280;46286;48.098;11.590;2023-03-01T10:36:08;95751.53;;;0.98;100.00
60433;BME280;46286;48.098;11.590;2023-03-01T10:38:54;95744.69;;;1.10;100.00
60433;BME280;46286;48.098;11.590;2023-03-01T10:41:21;95739.56;;;1.94;100.00
60433;BME280;46286;48.098;11.590;2023-03-01T10:43:55;95739.22;;;1.84;100.00
60433;BME280;46286;48.098;11.590;2023-03-01T10:46:36;95741.34;;;2.25;100.00
60433;BME280;46286;48.098;11.590;2023-03-01T10:51:30;95727.47;;;2.13;100.00
60433;BME280;46286;48.098;11.590;2023-03-01T10:53:56;95720.91;;;3.23;100.00
60433;BME280;46286;48.098;11.590;2023-03-01T10:56:22;95707.34;;;3.82;100.00
60433;BME280;46286;48.098;11.590;2023-03-01T10:59:04;95705.22;;;4.45;100.00
60433;BME280;46286;48.098;11.590;2023-03-01T11:01:34;95703.63;;;3.78;100.00
60433;BME280;46286;48.098;11.590;2023-03-01T11:06:33;95693.66;;;4.41;97.89
60433;BME280;46286;48.098;11.590;2023-03-01T11:09:19;95680.84;;;4.86;97.70
60433;BME280;46286;48.098;11.590;2023-03-01T11:11:45;95683.09;;;5.59;87.08
60433;BME280;46286;48.098;11.590;2023-03-01T11:16:48;95664.97;;;5.98;87.30
60433;BME280;46286;48.098;11.590;2023-03-01T11:19:17;95662.16;;;6.17;86.36
60433;BME280;46286;48.098;11.590;2023-03-01T11:24:19;95644.91;;;7.38;75.86
60433;BME280;46286;48.098;11.590;2023-03-01T11:26:52;95649.31;;;7.10;79.78
60433;BME280;46286;48.098;11.590;2023-03-01T11:29:30;95645.41;;;7.35;76.62
60433;BME280;46286;48.098;11.590;2023-03-01T11:32:01;95647.34;;;6.79;73.88
60433;BME280;46286;48.098;11.590;2023-03-01T11:34:49;95642.03;;;7.13;76.93
60433;BME280;46286;48.098;11.590;2023-03-01T11:37:32;95637.16;;;6.99;76.70
60433;BME280;46286;48.098;11.590;2023-03-01T11:40:12;95627.31;;;7.83;68.36
60433;BME280;46286;48.098;11.590;2023-03-01T11:42:56;95620.94;;;7.74;75.85
60433;BME280;46286;48.098;11.590;2023-03-01T11:45:31;95620.22;;;7.84;73.31
60433;BME280;46286;48.098;11.590;2023-03-01T11:48:07;95620.53;;;7.60;68.55
60433;BME280;46286;48.098;11.590;2023-03-01T11:50:44;95627.78;;;7.03;73.18
60433;BME280;46286;48.098;11.590;2023-03-01T11:53:33;95625.06;;;6.37;74.42
60433;BME280;46286;48.098;11.590;2023-03-01T11:56:24;95614.81;;;7.63;70.86
60433;BME280;46286;48.098;11.590;2023-03-01T12:01:56;95620.59;;;6.71;75.23
60433;BME280;46286;48.098;11.590;2023-03-01T12:07:45;95600.94;;;7.95;67.49
60433;BME280;46286;48.098;11.590;2023-03-01T12:16:15;95595.63;;;8.60;67.49
60433;BME280;46286;48.098;11.590;2023-03-01T12:19:01;95588.63;;;8.76;63.34
60433;BME280;46286;48.098;11.590;2023-03-01T12:32:50;95562.75;;;9.00;61.10
60433;BME280;46286;48.098;11.590;2023-03-01T12:38:07;95563.44;;;10.00;56.10
60433;BME280;46286;48.098;11.590;2023-03-01T12:40:59;95550.28;;;9.74;59.30
60433;BME280;46286;48.098;11.590;2023-03-01T12:48:55;95564.97;;;10.42;56.90
60433;BME280;46286;48.098;11.590;2023-03-01T12:51:28;95565.97;;;9.23;62.59
60433;BME280;46286;48.098;11.590;2023-03-01T12:53:57;95567.63;;;9.75;60.17
60433;BME280;46286;48.098;11.590;2023-03-01T12:56:28;95566.56;;;9.71;65.35
60433;BME280;46286;48.098;11.590;2023-03-01T13:04:51;95546.72;;;11.32;55.18
60433;BME280;46286;48.098;11.590;2023-03-01T13:07:35;95546.31;;;11.09;50.82
60433;BME280;46286;48.098;11.590;2023-03-01T13:10:17;95540.59;;;11.81;50.56
60433;BME280;46286;48.098;11.590;2023-03-01T13:12:50;95543.81;;;11.73;51.03
60433;BME280;46286;48.098;11.590;2023-03-01T13:17:55;95550.44;;;11.25;50.97
60433;BME280;46286;48.098;11.590;2023-03-01T13:20:27;95549.28;;;11.42;53.09
60433;BME280;46286;48.098;11.590;2023-03-01T13:23:23;95552.34;;;10.44;53.77
60433;BME280;46286;48.098;11.590;2023-03-01T13:33:49;95539.19;;;10.18;58.15
60433;BME280;46286;48.098;11.590;2023-03-01T13:39:04;95522.75;;;10.73;55.34
60433;BME280;46286;48.098;11.590;2023-03-01T13:46:50;95543.44;;;9.52;61.75
60433;BME280;46286;48.098;11.590;2023-03-01T13:49:20;95532.16;;;8.58;62.20
60433;BME280;46286;48.098;11.590;2023-03-01T13:51:48;95525.22;;;8.99;62.54
60433;BME280;46286;48.098;11.590;2023-03-01T13:54:16;95528.72;;;8.09;68.37
60433;BME280;46286;48.098;11.590;2023-03-01T13:56:46;95524.44;;;8.41;65.68
60433;BME280;46286;48.098;11.590;2023-03-01T13:59:20;95522.09;;;6.82;74.19
60433;BME280;46286;48.098;11.590;2023-03-01T14:01:57;95520.31;;;6.88;75.91
60433;BME280;46286;48.098;11.590;2023-03-01T14:04:28;95516.63;;;6.62;78.69
60433;BME280;46286;48.098;11.590;2023-03-01T14:07:33;95528.47;;;6.25;79.41
60433;BME280;46286;48.098;11.590;2023-03-01T14:10:03;95533.50;;;6.10;81.29
60433;BME280;46286;48.098;11.590;2023-03-01T14:12:34;95524.75;;;5.53;85.64
60433;BME280;46286;48.098;11.590;2023-03-01T14:15:10;95518.75;;;5.86;85.22
60433;BME280;46286;48.098;11.590;2023-03-01T14:17:47;95518.84;;;5.41;88.40